Dades meteomassalio
Diari Summary for Juliol 25, 2017 Units:  Metric    English   Both
« Previous Day
Next Day »
Diari Semanal Mensual Anual Personalitzat
  Maxima: Minima: Mijana:
Temperatura: -17.8 °C -8.4 °C -5.8 °C
Rosada: -17.8 °C -11.9 °C -11.2 °C
Humitat: Humidity % 36 % 55 %
Velocitat del vent: 0 km/h 0 km/h 43 km/h
Racha vent: 0 km/h - -
Vent:- - WNW
Pressio: 0 hPa 34313.7 hPa -
Pluja: 0 mm    
Historical Graphs
 
 
Tabular Data for Juliol 25, 2017
Time Temperature Dew Point Pressure Wind Wind Speed Wind Gust Humidity Rainfall Rate (Hourly) solar Conditions
-17.8 °C -17.8 °C 0 hPa Calm     Humidity % 0 mm SolarRadiationWatts/m^2 W/m2 Conditions
00:02 -6.3 °C -10.3 °C 34476.3 hPa West 44.7 km/h 44.7 km/h 64 % 0 mm 0.0 W/m2 CLR
00:07 -6.4 °C -10.3 °C 34476.3 hPa West 54.4 km/h 54.4 km/h 64 % 0 mm 0.0 W/m2 CLR
00:12 -6.4 °C -10.4 °C 34476.3 hPa WNW 50.7 km/h 50.7 km/h 64 % 0 mm 0.0 W/m2 CLR
00:17 -6.5 °C -10.2 °C 34476.3 hPa West 56.6 km/h 56.6 km/h 65 % 0 mm 0.0 W/m2 CLR
00:22 -6.6 °C -10.3 °C 34476.3 hPa West 62.6 km/h 62.6 km/h 65 % 0 mm 0.0 W/m2 CLR
00:27 -6.6 °C -10.4 °C 34476.3 hPa WNW 36.2 km/h 36.2 km/h 65 % 0 mm 0.0 W/m2 CLR
00:32 -6.6 °C -10.4 °C 34476.3 hPa West 62.6 km/h 62.6 km/h 65 % 0 mm 0.0 W/m2 CLR
00:37 -6.7 °C -10.4 °C 34476.3 hPa West 57 km/h 57 km/h 65 % 0 mm 0.0 W/m2 CLR
00:42 -6.7 °C -10.4 °C 34476.3 hPa West 47.6 km/h 47.6 km/h 65 % 0 mm 0.0 W/m2 CLR
00:47 -6.7 °C -10.4 °C 34476.3 hPa West 68.6 km/h 68.6 km/h 65 % 0 mm 0.0 W/m2 CLR
00:52 -6.7 °C -10.4 °C 34476.3 hPa West 59.5 km/h 59.5 km/h 65 % 0 mm 0.0 W/m2 CLR
00:57 -6.8 °C -10.4 °C 34476.3 hPa WNW 53.6 km/h 53.6 km/h 66 % 0 mm 0.0 W/m2 CLR
01:02 -6.8 °C -10.4 °C 34476.3 hPa WNW 50.7 km/h 50.7 km/h 66 % 0 mm 0.0 W/m2 CLR
01:07 -6.9 °C -10.4 °C 34476.3 hPa WNW 44.7 km/h 44.7 km/h 67 % 0 mm 0.0 W/m2 CLR
01:12 -6.9 °C -10.4 °C 34476.3 hPa WNW 53.6 km/h 53.6 km/h 67 % 0 mm 0.0 W/m2 CLR
01:17 -6.9 °C -10.4 °C 34476.3 hPa WNW 41.7 km/h 41.7 km/h 67 % 0 mm 0.0 W/m2 CLR
01:22 -7 °C -10.4 °C 34476.3 hPa WNW 56.6 km/h 56.6 km/h 67 % 0 mm 0.0 W/m2 CLR
01:27 -6.9 °C -10.6 °C 34476.3 hPa West 50.7 km/h 50.7 km/h 66 % 0 mm 0.0 W/m2 CLR
01:32 -7 °C -10.6 °C 34462.7 hPa West 50.7 km/h 50.7 km/h 66 % 0 mm 0.0 W/m2 CLR
01:37 -7 °C -10.6 °C 34462.7 hPa WNW 41.7 km/h 41.7 km/h 66 % 0 mm 0.0 W/m2 CLR
01:42 -7 °C -10.6 °C 34462.7 hPa West 59.5 km/h 59.5 km/h 66 % 0 mm 0.0 W/m2 CLR
01:47 -7.1 °C -10.7 °C 34462.7 hPa West 57 km/h 57 km/h 66 % 0 mm 0.0 W/m2 CLR
01:52 -7.1 °C -10.5 °C 34476.3 hPa WSW 50.7 km/h 50.7 km/h 67 % 0 mm 0.0 W/m2 CLR
01:57 -7.1 °C -10.6 °C 34476.3 hPa WNW 44.1 km/h 44.1 km/h 67 % 0 mm 0.0 W/m2 CLR
02:02 -7.1 °C -10.6 °C 34476.3 hPa West 41.7 km/h 41.7 km/h 67 % 0 mm 0.0 W/m2 CLR
02:07 -7.2 °C -10.5 °C 34476.3 hPa West 38.8 km/h 38.8 km/h 68 % 0 mm 0.0 W/m2 CLR
02:12 -7.2 °C -10.6 °C 34476.3 hPa NW 50.7 km/h 50.7 km/h 68 % 0 mm 0.0 W/m2 CLR
02:17 -7.3 °C -10.7 °C 34476.3 hPa WNW 36.2 km/h 36.2 km/h 68 % 0 mm 0.0 W/m2 CLR
02:23 -7.3 °C -10.6 °C 34476.3 hPa West 41.7 km/h 41.7 km/h 69 % 0 mm 0.0 W/m2 CLR
02:28 -7.4 °C -10.6 °C 34476.3 hPa WNW 44.1 km/h 44.1 km/h 69 % 0 mm 0.0 W/m2 CLR
02:33 -7.4 °C -10.5 °C 34476.3 hPa West 59.5 km/h 59.5 km/h 70 % 0 mm 0.0 W/m2 CLR
02:38 -7.4 °C -10.5 °C 34476.3 hPa WNW 53.6 km/h 53.6 km/h 70 % 0 mm 0.0 W/m2 CLR
02:43 -7.5 °C -10.6 °C 34476.3 hPa WNW 41.7 km/h 41.7 km/h 70 % 0 mm 0.0 W/m2 CLR
02:48 -7.5 °C -10.6 °C 34476.3 hPa West 50.7 km/h 50.7 km/h 70 % 0 mm 0.0 W/m2 CLR
02:53 -7.6 °C -10.6 °C 34476.3 hPa West 47.6 km/h 47.6 km/h 70 % 0 mm 0.0 W/m2 CLR
02:58 -7.6 °C -10.7 °C 34462.7 hPa WNW 62.6 km/h 62.6 km/h 70 % 0 mm 0.0 W/m2 CLR
03:03 -7.6 °C -10.7 °C 34462.7 hPa WNW 47.6 km/h 47.6 km/h 70 % 0 mm 0.0 W/m2 CLR
03:08 -7.6 °C -10.6 °C 34462.7 hPa WNW 62.6 km/h 62.6 km/h 71 % 0 mm 0.0 W/m2 CLR
03:13 -7.6 °C -10.6 °C 34462.7 hPa WNW 57 km/h 57 km/h 71 % 0 mm 0.0 W/m2 CLR
03:18 -7.7 °C -10.6 °C 34452.6 hPa WNW 51.8 km/h 51.8 km/h 71 % 0 mm 0.0 W/m2 CLR
03:23 -7.7 °C -10.6 °C 34452.6 hPa WNW 68.6 km/h 68.6 km/h 72 % 0 mm 0.0 W/m2 CLR
03:28 -7.8 °C -10.6 °C 34452.6 hPa NW 69.8 km/h 69.8 km/h 72 % 0 mm 0.0 W/m2 CLR
03:33 -7.8 °C -10.7 °C 34442.4 hPa NW 68.6 km/h 68.6 km/h 71 % 0 mm 0.0 W/m2 CLR
03:38 -7.8 °C -10.7 °C 34442.4 hPa WNW 68.6 km/h 68.6 km/h 71 % 0 mm 0.0 W/m2 CLR
03:43 -7.8 °C -10.8 °C 34442.4 hPa West 59.5 km/h 59.5 km/h 71 % 0 mm 0.0 W/m2 CLR
03:48 -7.8 °C -10.8 °C 34442.4 hPa WNW 62.6 km/h 62.6 km/h 71 % 0 mm 0.0 W/m2 CLR
03:53 -7.9 °C -10.8 °C 34442.4 hPa WNW 53.6 km/h 53.6 km/h 71 % 0 mm 0.0 W/m2 CLR
03:58 -7.9 °C -10.8 °C 34442.4 hPa WNW 38.8 km/h 38.8 km/h 71 % 0 mm 0.0 W/m2 CLR
04:03 -7.9 °C -10.9 °C 34442.4 hPa West 56.6 km/h 56.6 km/h 71 % 0 mm 0.0 W/m2 CLR
04:08 -7.9 °C -10.9 °C 34442.4 hPa West 50.7 km/h 50.7 km/h 71 % 0 mm 0.0 W/m2 CLR
04:13 -7.9 °C -10.9 °C 34442.4 hPa WNW 41.7 km/h 41.7 km/h 71 % 0 mm 0.0 W/m2 CLR
04:18 -7.9 °C -10.9 °C 34442.4 hPa WNW 44.7 km/h 44.7 km/h 71 % 0 mm 0.0 W/m2 CLR
04:23 -7.9 °C -10.9 °C 34452.6 hPa West 26.9 km/h 26.9 km/h 71 % 0 mm 0.0 W/m2 CLR
04:28 -8 °C -10.9 °C 34452.6 hPa WSW 26.9 km/h 26.9 km/h 71 % 0 mm 0.0 W/m2 CLR
04:33 -8 °C -10.9 °C 34452.6 hPa NW 29.8 km/h 29.8 km/h 71 % 0 mm 0.0 W/m2 CLR
04:38 -8 °C -11 °C 34452.6 hPa WSW 3.1 km/h   71 % 0 mm 0.0 W/m2 CLR
04:43 -8.1 °C -11 °C 34452.6 hPa NW 11.9 km/h   71 % 0 mm 0.0 W/m2 CLR
04:48 -8.1 °C -11.1 °C 34442.4 hPa West 29.8 km/h 29.8 km/h 71 % 0 mm 0.0 W/m2 CLR
04:53 -8.1 °C -11.1 °C 34442.4 hPa WNW 26.9 km/h 26.9 km/h 71 % 0 mm 0.0 W/m2 CLR
04:58 -8.1 °C -11.1 °C 34442.4 hPa West 32.8 km/h 32.8 km/h 71 % 0 mm 0.0 W/m2 CLR
05:03 -8.1 °C -11.1 °C 34442.4 hPa WNW 29.8 km/h 29.8 km/h 71 % 0 mm 0.0 W/m2 CLR
05:08 -8.1 °C -11.1 °C 34442.4 hPa WNW 38.8 km/h 38.8 km/h 71 % 0 mm 0.0 W/m2 CLR
05:13 -8.2 °C -11.1 °C 34442.4 hPa WNW 38.8 km/h 38.8 km/h 71 % 0 mm 0.0 W/m2 CLR
05:18 -8.2 °C -11.1 °C 34442.4 hPa WNW 41.7 km/h 41.7 km/h 71 % 0 mm 0.0 W/m2 CLR
05:23 -8.2 °C -11.2 °C 34442.4 hPa West 47.6 km/h 47.6 km/h 71 % 0 mm 0.0 W/m2 CLR
05:28 -8.2 °C -11.1 °C 34428.8 hPa West 41.7 km/h 41.7 km/h 71 % 0 mm 0.0 W/m2 CLR
05:33 -8.2 °C -11.2 °C 34442.4 hPa WNW 41.4 km/h 41.4 km/h 71 % 0 mm 0.0 W/m2 CLR
05:38 -8.2 °C -11.2 °C 34442.4 hPa West 41.7 km/h 41.7 km/h 71 % 0 mm 0.0 W/m2 CLR
05:43 -8.2 °C -11.2 °C 34452.6 hPa West 29.8 km/h 29.8 km/h 71 % 0 mm 0.0 W/m2 CLR
05:48 -8.3 °C -11.2 °C 34442.4 hPa WNW 20.9 km/h 20.9 km/h 71 % 0 mm 0.0 W/m2 CLR
05:58 -8.3 °C -11.2 °C 34442.4 hPa West 31.1 km/h 31.1 km/h 72 % 0 mm 0.0 W/m2 CLR
06:03 -8.3 °C -11.1 °C 34442.4 hPa West 29.8 km/h 29.8 km/h 72 % 0 mm 0.0 W/m2 CLR
06:08 -8.2 °C -11.2 °C 34442.4 hPa West 41.7 km/h 41.7 km/h 71 % 0 mm 0.0 W/m2 CLR
06:13 -8.3 °C -11.2 °C 34442.4 hPa West 29.8 km/h 29.8 km/h 71 % 0 mm 0.0 W/m2 CLR
06:18 -8.3 °C -11.2 °C 34442.4 hPa West 32.8 km/h 32.8 km/h 71 % 0 mm 0.0 W/m2 CLR
06:23 -8.3 °C -11.2 °C 34442.4 hPa WSW 17.9 km/h 17.9 km/h 72 % 0 mm 0.0 W/m2 CLR
06:28 -8.3 °C -11.2 °C 34442.4 hPa WSW 29.8 km/h 29.8 km/h 72 % 0 mm 0.0 W/m2 CLR
06:33 -8.3 °C -11.2 °C 34452.6 hPa West 32.8 km/h 32.8 km/h 72 % 0 mm 0.0 W/m2 CLR
06:38 -8.3 °C -11.2 °C 34452.6 hPa West 23.8 km/h 23.8 km/h 72 % 0 mm 0.0 W/m2 OVC
06:43 -8.3 °C -11.2 °C 34452.6 hPa WNW 32.8 km/h 32.8 km/h 72 % 0 mm 0.0 W/m2 OVC
06:48 -8.4 °C -11.2 °C 34452.6 hPa NW 41.7 km/h 41.7 km/h 72 % 0 mm 0.0 W/m2 OVC
06:53 -8.4 °C -11.2 °C 34442.4 hPa WNW 49.2 km/h 49.2 km/h 72 % 0 mm 7.0 W/m2 OVC
06:58 -8.4 °C -11.2 °C 34452.6 hPa NW 50.7 km/h 50.7 km/h 72 % 0 mm 9.0 W/m2 BKN
07:03 -8.3 °C -11.2 °C 34452.6 hPa West 47.6 km/h 47.6 km/h 71 % 0 mm 11.0 W/m2 BKN
07:08 -8.3 °C -11.2 °C 34452.6 hPa West 32.8 km/h 32.8 km/h 71 % 0 mm 14.0 W/m2 BKN
07:13 -8.2 °C -11.3 °C 34452.6 hPa West 12.9 km/h 12.9 km/h 70 % 0 mm 19.0 W/m2 BKN
07:18 -8.3 °C -11.3 °C 34452.6 hPa WNW 20.9 km/h 20.9 km/h 70 % 0 mm 19.0 W/m2 BKN
07:23 -8.2 °C -11.3 °C 34452.6 hPa West 29.8 km/h 29.8 km/h 70 % 0 mm 23.0 W/m2 BKN
07:28 -8.2 °C -11.3 °C 34452.6 hPa West 35.7 km/h 35.7 km/h 70 % 0 mm 30.0 W/m2 BKN
07:33 -8.2 °C -11.2 °C 34452.6 hPa West 29.8 km/h 29.8 km/h 70 % 0 mm 44.0 W/m2 BKN
07:38 -8.2 °C -11.2 °C 34452.6 hPa West 50.7 km/h 50.7 km/h 70 % 0 mm 58.0 W/m2 SCT
07:43 -8.1 °C -11.3 °C 34452.6 hPa West 44.1 km/h 44.1 km/h 69 % 0 mm 76.0 W/m2 FEW
07:48 -8.1 °C -11.3 °C 34452.6 hPa West 38.8 km/h 38.8 km/h 69 % 0 mm 84.0 W/m2 FEW
07:53 -8 °C -11.2 °C 34452.6 hPa West 38.8 km/h 38.8 km/h 69 % 0 mm 100.0 W/m2 FEW
07:58 -8 °C -11.3 °C 34442.4 hPa West 47.6 km/h 47.6 km/h 68 % 0 mm 116.0 W/m2 CLR
08:03 -8 °C -11.3 °C 34442.4 hPa WNW 41.7 km/h 41.7 km/h 68 % 0 mm 134.0 W/m2 CLR
08:09 -7.9 °C -11.3 °C 34442.4 hPa WNW 44.7 km/h 44.7 km/h 68 % 0 mm 149.0 W/m2 CLR
08:14 -7.9 °C -11.2 °C 34452.6 hPa WNW 44.1 km/h 44.1 km/h 68 % 0 mm 172.0 W/m2 CLR
08:19 -7.8 °C -11.3 °C 34452.6 hPa WNW 47.6 km/h 47.6 km/h 67 % 0 mm 188.0 W/m2 CLR
08:24 -7.8 °C -11.2 °C 34442.4 hPa NW 47.6 km/h 47.6 km/h 67 % 0 mm 207.0 W/m2 CLR
08:29 -7.7 °C -11.3 °C 34442.4 hPa WNW 32.8 km/h 32.8 km/h 66 % 0 mm 223.0 W/m2 CLR
08:34 -7.7 °C -11.2 °C 34452.6 hPa West 35.7 km/h 35.7 km/h 66 % 0 mm 244.0 W/m2 CLR
08:39 -7.6 °C -11.3 °C 34452.6 hPa WNW 41.7 km/h 41.7 km/h 65 % 0 mm 281.0 W/m2 CLR
08:44 -7.5 °C -11.3 °C 34452.6 hPa NW 47.6 km/h 47.6 km/h 64 % 0 mm 285.0 W/m2 CLR
08:49 -7.6 °C -11.4 °C 34452.6 hPa WNW 50.7 km/h 50.7 km/h 64 % 0 mm 288.0 W/m2 CLR
08:54 -7.4 °C -11.2 °C 34452.6 hPa WNW 47.6 km/h 47.6 km/h 65 % 0 mm 306.0 W/m2 CLR
08:59 -7.4 °C -11.2 °C 34452.6 hPa West 35.7 km/h 35.7 km/h 64 % 0 mm 327.0 W/m2 CLR
09:04 -7.3 °C -11.3 °C 34452.6 hPa West 62.6 km/h 62.6 km/h 63 % 0 mm 345.0 W/m2 CLR
09:09 -7.3 °C -11.2 °C 34452.6 hPa West 47.6 km/h 47.6 km/h 64 % 0 mm 367.0 W/m2 CLR
09:14 -7.3 °C -11.3 °C 34452.6 hPa WNW 50.7 km/h 50.7 km/h 63 % 0 mm 408.0 W/m2 CLR
09:19 -7.4 °C -11.2 °C 34452.6 hPa WNW 26.9 km/h 26.9 km/h 64 % 0 mm 195.0 W/m2 CLR
09:24 -7.3 °C -11.3 °C 34452.6 hPa NNW 44.1 km/h 44.1 km/h 63 % 0 mm 144.0 W/m2 CLR
09:29 -7.3 °C -11.2 °C 34452.6 hPa WNW 41.7 km/h 41.7 km/h 64 % 0 mm 162.0 W/m2 CLR
09:34 -7.3 °C -11.3 °C 34452.6 hPa WNW 50.7 km/h 50.7 km/h 63 % 0 mm 171.0 W/m2 CLR
09:39 -7.3 °C -11.3 °C 34452.6 hPa WNW 44.7 km/h 44.7 km/h 63 % 0 mm 552.0 W/m2 CLR
09:44 -7.1 °C -11.2 °C 34452.6 hPa WNW 47.6 km/h 47.6 km/h 62 % 0 mm 541.0 W/m2 CLR
09:49 -7 °C -11.3 °C 34452.6 hPa WNW 50.7 km/h 50.7 km/h 61 % 0 mm 186.0 W/m2 CLR
09:54 -7 °C -11.3 °C 34452.6 hPa NW 50.7 km/h 50.7 km/h 61 % 0 mm 610.0 W/m2 CLR
09:59 -6.9 °C -11.2 °C 34452.6 hPa WNW 41.4 km/h 41.4 km/h 61 % 0 mm 294.0 W/m2 CLR
10:04 -6.7 °C -11.3 °C 34452.6 hPa WNW 47.6 km/h 47.6 km/h 59 % 0 mm 649.0 W/m2 CLR
10:09 -6.8 °C -11.2 °C 34452.6 hPa NW 47.6 km/h 47.6 km/h 60 % 0 mm 232.0 W/m2 CLR
10:14 -6.7 °C -11.1 °C 34452.6 hPa NNW 38.8 km/h 38.8 km/h 60 % 0 mm 214.0 W/m2 CLR
10:19 -6.7 °C -11.2 °C 34452.6 hPa WNW 38.8 km/h 38.8 km/h 60 % 0 mm 200.0 W/m2 CLR
10:24 -6.6 °C -11.1 °C 34442.4 hPa WNW 53.6 km/h 53.6 km/h 60 % 0 mm 742.0 W/m2 CLR
10:29 -6.7 °C -11.2 °C 34442.4 hPa NNW 41.7 km/h 41.7 km/h 60 % 0 mm 227.0 W/m2 CLR
10:34 -6.6 °C -11.1 °C 34442.4 hPa WNW 54.4 km/h 54.4 km/h 60 % 0 mm 336.0 W/m2 CLR
10:39 -6.7 °C -11.3 °C 34442.4 hPa NW 38.8 km/h 38.8 km/h 59 % 0 mm 193.0 W/m2 CLR
10:44 -6.6 °C -11 °C 34442.4 hPa WNW 41.7 km/h 41.7 km/h 60 % 0 mm 204.0 W/m2 CLR
10:49 -6.3 °C -10.9 °C 34442.4 hPa WSW 36.2 km/h 36.2 km/h 59 % 0 mm 777.0 W/m2 CLR
10:54 -6.2 °C -11.2 °C 34442.4 hPa NW 38.8 km/h 38.8 km/h 57 % 0 mm 561.0 W/m2 CLR
10:59 -6.3 °C -11 °C 34442.4 hPa WNW 41.7 km/h 41.7 km/h 58 % 0 mm 744.0 W/m2 CLR
11:02 -6.2 °C -11.1 °C 34442.4 hPa WNW 29.8 km/h 29.8 km/h 57 % 0 mm 773.0 W/m2 CLR
11:07 -6.1 °C -11 °C 34442.4 hPa NNW 41.7 km/h 41.7 km/h 57 % 0 mm 213.0 W/m2 CLR
11:12 -6.2 °C -11.2 °C 34442.4 hPa West 59.5 km/h 59.5 km/h 56 % 0 mm 826.0 W/m2 CLR
11:17 -6.1 °C -11.2 °C 34428.8 hPa NNW 46.7 km/h 46.7 km/h 56 % 0 mm 754.0 W/m2 CLR
11:23 -5.9 °C -11.3 °C 34442.4 hPa NW 47.6 km/h 47.6 km/h 54 % 0 mm 747.0 W/m2 CLR
11:28 -5.7 °C -11.2 °C 34428.8 hPa WNW 50.7 km/h 50.7 km/h 54 % 0 mm 744.0 W/m2 CLR
11:33 -5.7 °C -11.1 °C 34428.8 hPa WNW 59.5 km/h 59.5 km/h 54 % 0 mm 754.0 W/m2 CLR
11:38 -5.6 °C -11.2 °C 34428.8 hPa West 41.7 km/h 41.7 km/h 53 % 0 mm 763.0 W/m2 CLR
11:43 -5.6 °C -11.3 °C 34418.7 hPa WNW 53.6 km/h 53.6 km/h 52 % 0 mm 772.0 W/m2 CLR
11:48 -5.6 °C -11.3 °C 34418.7 hPa WNW 56.6 km/h 56.6 km/h 52 % 0 mm 782.0 W/m2 CLR
11:53 -5.4 °C -11.3 °C 34418.7 hPa WNW 53.6 km/h 53.6 km/h 51 % 0 mm 791.0 W/m2 CLR
11:58 -5.2 °C -11.3 °C 34418.7 hPa West 50.7 km/h 50.7 km/h 50 % 0 mm 802.0 W/m2 CLR
12:03 -5.2 °C -11.3 °C 34418.7 hPa WNW 56.6 km/h 56.6 km/h 50 % 0 mm 809.0 W/m2 CLR
12:08 -5.2 °C -11.3 °C 34418.7 hPa WNW 41.7 km/h 41.7 km/h 50 % 0 mm 816.0 W/m2 CLR
12:13 -5.1 °C -11.2 °C 34418.7 hPa WNW 44.7 km/h 44.7 km/h 50 % 0 mm 826.0 W/m2 CLR
12:18 -4.9 °C -11.4 °C 34418.7 hPa NW 53.6 km/h 53.6 km/h 48 % 0 mm 833.0 W/m2 CLR
12:23 -5 °C -11.3 °C 34418.7 hPa NNW 32.8 km/h 32.8 km/h 49 % 0 mm 842.0 W/m2 CLR
12:28 -4.9 °C -11.3 °C 34418.7 hPa West 50.7 km/h 50.7 km/h 48 % 0 mm 851.0 W/m2 CLR
12:33 -4.8 °C -11.2 °C 34405.1 hPa NW 53.6 km/h 53.6 km/h 48 % 0 mm 856.0 W/m2 CLR
12:38 -4.8 °C -11.4 °C 34418.7 hPa NW 53.6 km/h 53.6 km/h 47 % 0 mm 863.0 W/m2 CLR
12:43 -4.7 °C -11.3 °C 34405.1 hPa NW 36.2 km/h 36.2 km/h 47 % 0 mm 870.0 W/m2 CLR
12:48 -4.6 °C -11.3 °C 34405.1 hPa WNW 50.7 km/h 50.7 km/h 47 % 0 mm 879.0 W/m2 CLR
12:53 -4.6 °C -11.2 °C 34405.1 hPa NNW 50.7 km/h 50.7 km/h 47 % 0 mm 881.0 W/m2 CLR
12:58 -4.8 °C -11.4 °C 34405.1 hPa NNW 59.5 km/h 59.5 km/h 47 % 0 mm 886.0 W/m2 CLR
13:03 -4.7 °C -11.3 °C 34405.1 hPa NW 50.7 km/h 50.7 km/h 47 % 0 mm 893.0 W/m2 CLR
13:08 -4.8 °C -11.4 °C 34405.1 hPa WNW 59.5 km/h 59.5 km/h 47 % 0 mm 896.0 W/m2 CLR
13:13 -4.7 °C -11.2 °C 34395 hPa WNW 44.7 km/h 44.7 km/h 48 % 0 mm 902.0 W/m2 CLR
13:18 -4.4 °C -11.1 °C 34395 hPa NW 53.6 km/h 53.6 km/h 47 % 0 mm 905.0 W/m2 CLR
13:23 -4.4 °C -11.2 °C 34405.1 hPa NW 53.6 km/h 53.6 km/h 46 % 0 mm 909.0 W/m2 CLR
13:28 -4.4 °C -11.3 °C 34405.1 hPa NNW 51.8 km/h 51.8 km/h 46 % 0 mm 911.0 W/m2 CLR
13:33 -4.3 °C -11.2 °C 34395 hPa NNW 53.6 km/h 53.6 km/h 46 % 0 mm 914.0 W/m2 CLR
13:38 -4.2 °C -11.2 °C 34395 hPa WNW 44.7 km/h 44.7 km/h 45 % 0 mm 916.0 W/m2 CLR
13:43 -4.1 °C -11.2 °C 34395 hPa NW 47.6 km/h 47.6 km/h 45 % 0 mm 919.0 W/m2 CLR
13:48 -4.1 °C -11.3 °C 34395 hPa NW 56.6 km/h 56.6 km/h 44 % 0 mm 921.0 W/m2 CLR
13:53 -4 °C -11.1 °C 34395 hPa NNW 41.7 km/h 41.7 km/h 45 % 0 mm 921.0 W/m2 CLR
13:58 -3.9 °C -11.2 °C 34384.8 hPa WNW 50.7 km/h 50.7 km/h 44 % 0 mm 923.0 W/m2 CLR
14:03 -4 °C -11.3 °C 34395 hPa NW 50.7 km/h 50.7 km/h 44 % 0 mm 926.0 W/m2 CLR
14:08 -3.9 °C -11.2 °C 34384.8 hPa NW 47.6 km/h 47.6 km/h 44 % 0 mm 925.0 W/m2 CLR
14:13 -3.8 °C -11.1 °C 34384.8 hPa NNW 32.8 km/h 32.8 km/h 44 % 0 mm 923.0 W/m2 CLR
14:18 -3.7 °C -11.4 °C 34384.8 hPa WNW 56.6 km/h 56.6 km/h 42 % 0 mm 925.0 W/m2 CLR
14:23 -3.7 °C -11.4 °C 34384.8 hPa NNW 35.7 km/h 35.7 km/h 42 % 0 mm 923.0 W/m2 CLR
14:28 -3.6 °C -11.1 °C 34384.8 hPa West 29.8 km/h 29.8 km/h 43 % 0 mm 918.0 W/m2 CLR
14:33 -3.6 °C -11.3 °C 34371.3 hPa NW 53.6 km/h 53.6 km/h 42 % 0 mm 919.0 W/m2 CLR
14:38 -3.6 °C -11.3 °C 34371.3 hPa WNW 46.7 km/h 46.7 km/h 42 % 0 mm 918.0 W/m2 CLR
14:43 -3.4 °C -11.1 °C 34371.3 hPa NW 36.2 km/h 36.2 km/h 42 % 0 mm 916.0 W/m2 CLR
14:45 -3.4 °C -11.1 °C 34371.3 hPa NW 50.7 km/h 50.7 km/h 42 % 0 mm 916.0 W/m2 CLR
14:50 -3.3 °C -11.1 °C 34371.3 hPa NW 41.7 km/h 41.7 km/h 42 % 0 mm 912.0 W/m2 CLR
14:55 -3.3 °C -11.2 °C 34361.1 hPa NW 47.6 km/h 47.6 km/h 41 % 0 mm 905.0 W/m2 CLR
15:00 -3.2 °C -11.2 °C 34361.1 hPa WNW 51.8 km/h 51.8 km/h 41 % 0 mm 902.0 W/m2 CLR
15:05 -3.2 °C -11.2 °C 34361.1 hPa NW 31.1 km/h 31.1 km/h 41 % 0 mm 898.0 W/m2 CLR
15:10 -3.2 °C -11.3 °C 34361.1 hPa NW 41.7 km/h 41.7 km/h 40 % 0 mm 895.0 W/m2 CLR
15:15 -3.2 °C -11.1 °C 34361.1 hPa NNW 35.7 km/h 35.7 km/h 41 % 0 mm 888.0 W/m2 CLR
15:20 -3 °C -11 °C 34347.6 hPa NW 32.8 km/h 32.8 km/h 41 % 0 mm 882.0 W/m2 CLR
15:25 -3 °C -11.2 °C 34347.6 hPa West 53.6 km/h 53.6 km/h 40 % 0 mm 879.0 W/m2 CLR
15:30 -2.9 °C -10.7 °C 34347.6 hPa WNW 38.8 km/h 38.8 km/h 42 % 0 mm 870.0 W/m2 CLR
15:35 -2.9 °C -11.1 °C 34347.6 hPa North 29.8 km/h 29.8 km/h 40 % 0 mm 865.0 W/m2 CLR
15:40 -2.8 °C -11 °C 34347.6 hPa NW 51.8 km/h 51.8 km/h 40 % 0 mm 858.0 W/m2 CLR
15:45 -2.7 °C -11.2 °C 34347.6 hPa WNW 38.8 km/h 38.8 km/h 39 % 0 mm 853.0 W/m2 CLR
15:50 -2.7 °C -11.1 °C 34347.6 hPa NNW 41.7 km/h 41.7 km/h 39 % 0 mm 844.0 W/m2 CLR
15:55 -2.7 °C -11.2 °C 34347.6 hPa NW 41.7 km/h 41.7 km/h 39 % 0 mm 837.0 W/m2 CLR
16:00 -2.7 °C -11.2 °C 34337.4 hPa NW 38.8 km/h 38.8 km/h 39 % 0 mm 828.0 W/m2 CLR
16:05 -2.7 °C -11.2 °C 34337.4 hPa NW 50.7 km/h 50.7 km/h 39 % 0 mm 819.0 W/m2 CLR
16:11 -2.6 °C -10.7 °C 34337.4 hPa WNW 38.8 km/h 38.8 km/h 40 % 0 mm 810.0 W/m2 CLR
16:16 -2.7 °C -11.2 °C 34337.4 hPa WNW 62.6 km/h 62.6 km/h 39 % 0 mm 802.0 W/m2 CLR
16:21 -2.8 °C -11 °C 34337.4 hPa WNW 68.6 km/h 68.6 km/h 40 % 0 mm 793.0 W/m2 CLR
16:26 -2.7 °C -11.4 °C 34337.4 hPa WNW 44.1 km/h 44.1 km/h 38 % 0 mm 782.0 W/m2 CLR
16:31 -2.9 °C -11.3 °C 34337.4 hPa WNW 47.6 km/h 47.6 km/h 39 % 0 mm 773.0 W/m2 CLR
16:36 -2.7 °C -10.9 °C 34337.4 hPa NW 47.6 km/h 47.6 km/h 40 % 0 mm 765.0 W/m2 CLR
16:41 -2.8 °C -11 °C 34337.4 hPa NW 59.5 km/h 59.5 km/h 40 % 0 mm 754.0 W/m2 CLR
16:46 -2.7 °C -10.9 °C 34327.3 hPa NW 41.7 km/h 41.7 km/h 40 % 0 mm 744.0 W/m2 CLR
16:51 -2.8 °C -11.2 °C 34327.3 hPa West 68.6 km/h 68.6 km/h 39 % 0 mm 733.0 W/m2 CLR
16:56 -2.7 °C -10.9 °C 34337.4 hPa NW 50.7 km/h 50.7 km/h 40 % 0 mm 719.0 W/m2 CLR
17:01 -2.7 °C -10.9 °C 34327.3 hPa North 38.8 km/h 38.8 km/h 40 % 0 mm 703.0 W/m2 CLR
17:06 -2.8 °C -11 °C 34327.3 hPa WNW 53.6 km/h 53.6 km/h 40 % 0 mm 700.0 W/m2 CLR
17:11 -2.8 °C -10.8 °C 34327.3 hPa NW 53.6 km/h 53.6 km/h 41 % 0 mm 710.0 W/m2 CLR
17:16 -2.8 °C -10.8 °C 34327.3 hPa NW 44.7 km/h 44.7 km/h 41 % 0 mm 682.0 W/m2 CLR
17:21 -2.9 °C -11.1 °C 34327.3 hPa NNW 59.5 km/h 59.5 km/h 40 % 0 mm 497.0 W/m2 CLR
17:26 -2.9 °C -11.2 °C 34327.3 hPa NW 62.6 km/h 62.6 km/h 40 % 0 mm 700.0 W/m2 CLR
17:31 -3 °C -11.2 °C 34327.3 hPa NNW 65.5 km/h 65.5 km/h 40 % 0 mm 670.0 W/m2 CLR
17:36 -2.9 °C -11.1 °C 34327.3 hPa WNW 53.6 km/h 53.6 km/h 40 % 0 mm 633.0 W/m2 CLR
17:41 -2.9 °C -11.1 °C 34327.3 hPa WNW 44.7 km/h 44.7 km/h 40 % 0 mm 638.0 W/m2 CLR
17:46 -2.8 °C -11.2 °C 34327.3 hPa NNW 41.7 km/h 41.7 km/h 39 % 0 mm 622.0 W/m2 CLR
17:51 -2.8 °C -11.2 °C 34327.3 hPa NW 53.6 km/h 53.6 km/h 39 % 0 mm 617.0 W/m2 CLR
17:56 -2.8 °C -11.2 °C 34327.3 hPa NW 41.7 km/h 41.7 km/h 39 % 0 mm 615.0 W/m2 CLR
18:01 -2.9 °C -11.9 °C 34327.3 hPa West 59.5 km/h 59.5 km/h 36 % 0 mm 592.0 W/m2 CLR
18:06 -3 °C -11.6 °C 34313.7 hPa WNW 53.6 km/h 53.6 km/h 38 % 0 mm 547.0 W/m2 CLR
18:11 -2.9 °C -11.3 °C 34313.7 hPa WNW 46.7 km/h 46.7 km/h 39 % 0 mm 520.0 W/m2 CLR
18:12 -2.9 °C -11.5 °C 34313.7 hPa WNW 38.8 km/h 39.4 km/h 38 % 0 mm 519.0 W/m2 CLR
18:17 -2.9 °C -11.6 °C 34327.3 hPa NW 50.7 km/h 50.7 km/h 38 % 0 mm 503.0 W/m2 CLR
18:22 -3 °C -11.4 °C 34313.7 hPa NNW 35.7 km/h 35.7 km/h 39 % 0 mm 487.0 W/m2 CLR
18:27 -2.8 °C -11.2 °C 34313.7 hPa NNW 41.7 km/h 41.7 km/h 39 % 0 mm 473.0 W/m2 CLR
18:32 -2.8 °C -11.4 °C 34313.7 hPa NW 38.8 km/h 38.8 km/h 38 % 0 mm 461.0 W/m2 CLR
18:37 -3 °C -11.6 °C 34327.3 hPa WNW 50.7 km/h 50.7 km/h 38 % 0 mm 441.0 W/m2 CLR
18:42 -3.1 °C -11.4 °C 34327.3 hPa NW 38.8 km/h 38.8 km/h 39 % 0 mm 427.0 W/m2 CLR
18:47 -3.2 °C -11.7 °C 34313.7 hPa NNW 54.4 km/h 54.4 km/h 38 % 0 mm 417.0 W/m2 CLR
18:52 -3.2 °C -11.6 °C 34327.3 hPa NNW 50.7 km/h 50.7 km/h 39 % 0 mm 404.0 W/m2 CLR
18:53 -3.2 °C -11.6 °C 34327.3 hPa NW 56.6 km/h 56.6 km/h 39 % 0 mm 403.0 W/m2 CLR
18:58 -3.3 °C -11.4 °C 34313.7 hPa NW 33.6 km/h 33.6 km/h 40 % 0 mm 366.0 W/m2 CLR
19:03 -3.2 °C -11.4 °C 34313.7 hPa NNW 46.7 km/h 46.7 km/h 40 % 0 mm 373.0 W/m2 CLR
19:08 -3.3 °C -11.7 °C 34313.7 hPa WNW 53.6 km/h 53.6 km/h 39 % 0 mm 213.0 W/m2 CLR
19:13 -3.6 °C -11.7 °C 34313.7 hPa WNW 35.7 km/h 35.7 km/h 40 % 0 mm 139.0 W/m2 CLR
19:18 -3.7 °C -11.6 °C 34313.7 hPa NW 35.7 km/h 35.7 km/h 41 % 0 mm 69.0 W/m2 CLR
19:23 -3.8 °C -11.6 °C 34313.7 hPa NW 50.7 km/h 50.7 km/h 42 % 0 mm 63.0 W/m2 FEW
19:28 -4 °C -11.9 °C 34313.7 hPa WNW 47.6 km/h 47.6 km/h 41 % 0 mm 70.0 W/m2 SCT
19:33 -4.1 °C -11.9 °C 34313.7 hPa WNW 35.7 km/h 35.7 km/h 41 % 0 mm 95.0 W/m2 FEW
19:38 -4.1 °C -11.8 °C 34313.7 hPa WNW 47.6 km/h 47.6 km/h 42 % 0 mm 141.0 W/m2 CLR
19:43 -4.1 °C -11.7 °C 34313.7 hPa WNW 41.7 km/h 41.7 km/h 42 % 0 mm 241.0 W/m2 CLR
19:48 -3.9 °C -11.6 °C 34313.7 hPa NW 47.6 km/h 47.6 km/h 42 % 0 mm 302.0 W/m2 CLR
19:53 -3.9 °C -11.6 °C 34313.7 hPa NW 38.8 km/h 38.8 km/h 42 % 0 mm 274.0 W/m2 CLR
19:58 -3.8 °C -11.5 °C 34327.3 hPa West 33.6 km/h 33.6 km/h 42 % 0 mm 262.0 W/m2 CLR
20:03 -3.8 °C -11.5 °C 34327.3 hPa NW 50.7 km/h 50.7 km/h 42 % 0 mm 199.0 W/m2 CLR
20:08 -4.1 °C -11.5 °C 34313.7 hPa NNW 23.8 km/h 23.8 km/h 43 % 0 mm 100.0 W/m2 CLR
20:13 -4.1 °C -11.4 °C 34313.7 hPa NNW 28.5 km/h 28.5 km/h 44 % 0 mm 79.0 W/m2 CLR
20:18 -4.4 °C -11.6 °C 34327.3 hPa NNW 47.6 km/h 47.6 km/h 44 % 0 mm 49.0 W/m2 FEW
20:23 -4.5 °C -11.6 °C 34327.3 hPa WNW 35.7 km/h 35.7 km/h 45 % 0 mm 40.0 W/m2 BKN
20:28 -4.7 °C -11.7 °C 34327.3 hPa WNW 32.8 km/h 32.8 km/h 45 % 0 mm 39.0 W/m2 BKN
20:33 -4.7 °C -11.6 °C 34327.3 hPa NW 29.8 km/h 29.8 km/h 46 % 0 mm 49.0 W/m2 SCT
20:38 -4.8 °C -11.6 °C 34327.3 hPa West 26.9 km/h 26.9 km/h 46 % 0 mm 42.0 W/m2 BKN
20:43 -4.9 °C -11.7 °C 34327.3 hPa WNW 41.7 km/h 41.7 km/h 46 % 0 mm 33.0 W/m2 BKN
20:48 -4.9 °C -11.6 °C 34327.3 hPa WNW 41.4 km/h 41.4 km/h 47 % 0 mm 30.0 W/m2 BKN
20:53 -5.1 °C -11.5 °C 34337.4 hPa WNW 53.6 km/h 53.6 km/h 48 % 0 mm 28.0 W/m2 BKN
20:58 -5.2 °C -11.4 °C 34327.3 hPa WNW 32.8 km/h 32.8 km/h 49 % 0 mm 25.0 W/m2 BKN
21:04 -5.2 °C -11.5 °C 34327.3 hPa WNW 50.7 km/h 50.7 km/h 49 % 0 mm 19.0 W/m2 BKN
21:09 -5.3 °C -11.4 °C 34327.3 hPa West 50.7 km/h 50.7 km/h 50 % 0 mm 14.0 W/m2 BKN
21:14 -5.4 °C -11.5 °C 34337.4 hPa NNW 32.8 km/h 32.8 km/h 50 % 0 mm 11.0 W/m2 BKN
21:19 -5.6 °C -11.4 °C 34337.4 hPa NNW 41.4 km/h 41.4 km/h 51 % 0 mm 5.0 W/m2 BKN
21:24 -5.7 °C -11.6 °C 34337.4 hPa West 26.9 km/h 26.9 km/h 51 % 0 mm 5.0 W/m2 OVC
21:29 -5.7 °C -11.6 °C 34337.4 hPa West 29.8 km/h 29.8 km/h 51 % 0 mm 5.0 W/m2 OVC
21:34 -5.8 °C -11.5 °C 34347.6 hPa NW 28.5 km/h 28.5 km/h 52 % 0 mm 0.0 W/m2 CLR
21:39 -5.8 °C -11.5 °C 34347.6 hPa Calm     52 % 0 mm 0.0 W/m2 CLR
21:44 -5.9 °C -11.6 °C 34347.6 hPa SSW 38.8 km/h 38.8 km/h 52 % 0 mm 0.0 W/m2 CLR
21:49 -5.9 °C -11.6 °C 34347.6 hPa Calm     52 % 0 mm 0.0 W/m2 CLR
21:54 -5.9 °C -11.5 °C 34361.1 hPa NW 59.5 km/h 59.5 km/h 53 % 0 mm 0.0 W/m2 CLR
21:59 -6 °C -11.5 °C 34361.1 hPa WNW 38.8 km/h 38.8 km/h 53 % 0 mm 0.0 W/m2 CLR
22:04 -6.1 °C -11.6 °C 34361.1 hPa West 29.8 km/h 29.8 km/h 53 % 0 mm 0.0 W/m2 CLR
22:09 -6.1 °C -11.6 °C 34371.3 hPa WNW 44.7 km/h 44.7 km/h 53 % 0 mm 0.0 W/m2 CLR
22:14 -6.2 °C -11.7 °C 34371.3 hPa NW 38.8 km/h 38.8 km/h 53 % 0 mm 0.0 W/m2 CLR
22:19 -6.2 °C -11.6 °C 34371.3 hPa SW 11.9 km/h 11.9 km/h 54 % 0 mm 0.0 W/m2 CLR
22:24 -6.2 °C -11.6 °C 34371.3 hPa West 38.8 km/h 38.8 km/h 54 % 0 mm 0.0 W/m2 CLR
22:29 -6.2 °C -11.6 °C 34384.8 hPa West 32.8 km/h 32.8 km/h 54 % 0 mm 0.0 W/m2 CLR
22:34 -6.3 °C -11.7 °C 34384.8 hPa WNW 29.8 km/h 29.8 km/h 54 % 0 mm 0.0 W/m2 CLR
22:39 -6.3 °C -11.7 °C 34395 hPa WSW 29.8 km/h 29.8 km/h 54 % 0 mm 0.0 W/m2 CLR
22:44 -6.3 °C -11.7 °C 34395 hPa West 29.8 km/h 29.8 km/h 54 % 0 mm 0.0 W/m2 CLR
22:49 -6.3 °C -11.7 °C 34395 hPa SW 29.8 km/h 29.8 km/h 54 % 0 mm 0.0 W/m2 CLR
22:54 -6.4 °C -11.7 °C 34395 hPa WNW 35.7 km/h 35.7 km/h 54 % 0 mm 0.0 W/m2 CLR
22:59 -6.4 °C -11.7 °C 34395 hPa WNW 23.8 km/h 23.8 km/h 54 % 0 mm 0.0 W/m2 CLR
23:04 -6.4 °C -11.8 °C 34395 hPa West 35.7 km/h 35.7 km/h 54 % 0 mm 0.0 W/m2 CLR
23:09 -6.4 °C -11.6 °C 34395 hPa SW 23.8 km/h 23.8 km/h 55 % 0 mm 0.0 W/m2 CLR
23:14 -6.4 °C -11.6 °C 34405.1 hPa West 9 km/h 9 km/h 55 % 0 mm 0.0 W/m2 CLR
23:15 -6.4 °C -11.6 °C 34395 hPa WSW 9 km/h 9 km/h 55 % 0 mm 0.0 W/m2 CLR
23:20 -6.5 °C -11.7 °C 34395 hPa WSW 11.9 km/h 11.9 km/h 55 % 0 mm 0.0 W/m2 CLR
23:25 -6.5 °C -11.7 °C 34405.1 hPa SW 10.3 km/h 10.3 km/h 55 % 0 mm 0.0 W/m2 CLR
23:30 -6.6 °C -11.7 °C 34405.1 hPa WSW 3.1 km/h   55 % 0 mm 0.0 W/m2 CLR
23:35 -6.6 °C -11.8 °C 34405.1 hPa WNW 25.9 km/h 25.9 km/h 55 % 0 mm 0.0 W/m2 CLR
23:40 -6.6 °C -11.8 °C 34405.1 hPa West 50.7 km/h 50.7 km/h 55 % 0 mm 0.0 W/m2 CLR
23:45 -6.7 °C -11.8 °C 34405.1 hPa WSW 32.8 km/h 32.8 km/h 55 % 0 mm 0.0 W/m2 CLR
23:50 -6.7 °C -11.9 °C 34395 hPa West 50.7 km/h 50.7 km/h 55 % 0 mm 0.0 W/m2 CLR
23:55 -6.8 °C -11.9 °C 34395 hPa West 29.8 km/h 29.8 km/h 55 % 0 mm 0.0 W/m2 CLR
Lo Temps de Massalio
Compliments of Weather Underground - 1.25 mb